sensor_id;sensor_type;location;lat;lon;timestamp;P1;durP1;ratioP1;P2;durP2;ratioP2
79702;SDS011;69172;52.352;5.006;2023-05-14T00:01:40;19.55;;;12.07;;
79702;SDS011;69172;52.352;5.006;2023-05-14T00:04:05;25.10;;;12.98;;
79702;SDS011;69172;52.352;5.006;2023-05-14T00:06:31;26.13;;;13.00;;
79702;SDS011;69172;52.352;5.006;2023-05-14T00:08:56;24.70;;;14.02;;
79702;SDS011;69172;52.352;5.006;2023-05-14T00:11:22;21.23;;;11.70;;
79702;SDS011;69172;52.352;5.006;2023-05-14T00:13:48;23.23;;;13.38;;
79702;SDS011;69172;52.352;5.006;2023-05-14T00:16:14;23.08;;;13.40;;
79702;SDS011;69172;52.352;5.006;2023-05-14T00:18:45;25.13;;;12.90;;
79702;SDS011;69172;52.352;5.006;2023-05-14T00:21:11;18.90;;;11.73;;
79702;SDS011;69172;52.352;5.006;2023-05-14T00:23:37;24.05;;;13.38;;
79702;SDS011;69172;52.352;5.006;2023-05-14T00:26:02;19.95;;;12.68;;
79702;SDS011;69172;52.352;5.006;2023-05-14T00:28:30;29.52;;;14.32;;
79702;SDS011;69172;52.352;5.006;2023-05-14T00:30:55;23.17;;;14.85;;
79702;SDS011;69172;52.352;5.006;2023-05-14T00:33:21;22.15;;;12.23;;
79702;SDS011;69172;52.352;5.006;2023-05-14T00:35:47;23.00;;;14.18;;
79702;SDS011;69172;52.352;5.006;2023-05-14T00:38:12;24.65;;;13.60;;
79702;SDS011;69172;52.352;5.006;2023-05-14T00:40:41;24.75;;;13.73;;
79702;SDS011;69172;52.352;5.006;2023-05-14T00:43:09;24.48;;;13.38;;
79702;SDS011;69172;52.352;5.006;2023-05-14T00:45:35;23.50;;;13.32;;
79702;SDS011;69172;52.352;5.006;2023-05-14T00:48:01;25.55;;;14.07;;
79702;SDS011;69172;52.352;5.006;2023-05-14T00:50:26;25.27;;;14.45;;
79702;SDS011;69172;52.352;5.006;2023-05-14T00:52:52;22.20;;;13.02;;
79702;SDS011;69172;52.352;5.006;2023-05-14T00:55:17;27.38;;;15.27;;
79702;SDS011;69172;52.352;5.006;2023-05-14T00:57:43;26.02;;;14.13;;
79702;SDS011;69172;52.352;5.006;2023-05-14T01:00:09;22.08;;;12.20;;
79702;SDS011;69172;52.352;5.006;2023-05-14T01:02:34;22.83;;;13.23;;
79702;SDS011;69172;52.352;5.006;2023-05-14T01:05:00;24.85;;;13.18;;
79702;SDS011;69172;52.352;5.006;2023-05-14T01:10:04;25.65;;;13.32;;
79702;SDS011;69172;52.352;5.006;2023-05-14T01:13:20;25.02;;;14.00;;
79702;SDS011;69172;52.352;5.006;2023-05-14T01:16:01;25.88;;;15.13;;
79702;SDS011;69172;52.352;5.006;2023-05-14T01:18:28;23.20;;;14.18;;
79702;SDS011;69172;52.352;5.006;2023-05-14T01:20:55;22.30;;;12.90;;
79702;SDS011;69172;52.352;5.006;2023-05-14T01:23:21;25.13;;;14.48;;
79702;SDS011;69172;52.352;5.006;2023-05-14T01:25:46;29.85;;;14.88;;
79702;SDS011;69172;52.352;5.006;2023-05-14T01:28:13;23.38;;;14.80;;
79702;SDS011;69172;52.352;5.006;2023-05-14T01:30:56;28.48;;;15.68;;
79702;SDS011;69172;52.352;5.006;2023-05-14T01:33:26;27.00;;;13.98;;
79702;SDS011;69172;52.352;5.006;2023-05-14T01:35:53;27.13;;;15.25;;
79702;SDS011;69172;52.352;5.006;2023-05-14T01:38:20;24.92;;;15.50;;
79702;SDS011;69172;52.352;5.006;2023-05-14T01:40:46;25.55;;;15.15;;
79702;SDS011;69172;52.352;5.006;2023-05-14T01:43:12;30.77;;;15.70;;
79702;SDS011;69172;52.352;5.006;2023-05-14T01:45:39;27.88;;;15.57;;
79702;SDS011;69172;52.352;5.006;2023-05-14T01:48:07;26.73;;;15.05;;
79702;SDS011;69172;52.352;5.006;2023-05-14T01:50:32;26.52;;;15.07;;
79702;SDS011;69172;52.352;5.006;2023-05-14T01:52:58;24.17;;;13.40;;
79702;SDS011;69172;52.352;5.006;2023-05-14T01:55:23;25.15;;;14.23;;
79702;SDS011;69172;52.352;5.006;2023-05-14T01:57:49;25.60;;;14.88;;
79702;SDS011;69172;52.352;5.006;2023-05-14T02:00:15;26.45;;;14.27;;
79702;SDS011;69172;52.352;5.006;2023-05-14T02:02:41;26.83;;;15.77;;
79702;SDS011;69172;52.352;5.006;2023-05-14T02:05:11;27.83;;;14.88;;
79702;SDS011;69172;52.352;5.006;2023-05-14T02:07:37;31.67;;;15.88;;
79702;SDS011;69172;52.352;5.006;2023-05-14T02:10:03;28.85;;;15.10;;
79702;SDS011;69172;52.352;5.006;2023-05-14T02:12:28;28.58;;;15.68;;
79702;SDS011;69172;52.352;5.006;2023-05-14T02:14:54;26.73;;;14.77;;
79702;SDS011;69172;52.352;5.006;2023-05-14T02:17:19;23.27;;;14.32;;
79702;SDS011;69172;52.352;5.006;2023-05-14T02:19:44;27.45;;;14.57;;
79702;SDS011;69172;52.352;5.006;2023-05-14T02:22:10;27.70;;;14.65;;
79702;SDS011;69172;52.352;5.006;2023-05-14T02:24:36;26.10;;;13.90;;
79702;SDS011;69172;52.352;5.006;2023-05-14T02:27:02;26.38;;;15.63;;
79702;SDS011;69172;52.352;5.006;2023-05-14T02:29:27;24.30;;;13.77;;
79702;SDS011;69172;52.352;5.006;2023-05-14T02:31:52;27.55;;;14.52;;
79702;SDS011;69172;52.352;5.006;2023-05-14T02:34:18;27.17;;;15.93;;
79702;SDS011;69172;52.352;5.006;2023-05-14T02:36:43;25.77;;;14.32;;
79702;SDS011;69172;52.352;5.006;2023-05-14T02:39:08;27.15;;;13.27;;
79702;SDS011;69172;52.352;5.006;2023-05-14T02:41:34;24.42;;;12.50;;
79702;SDS011;69172;52.352;5.006;2023-05-14T02:43:59;24.95;;;13.52;;
79702;SDS011;69172;52.352;5.006;2023-05-14T02:46:25;25.15;;;14.80;;
79702;SDS011;69172;52.352;5.006;2023-05-14T02:48:50;24.42;;;13.55;;
79702;SDS011;69172;52.352;5.006;2023-05-14T02:51:16;28.15;;;14.45;;
79702;SDS011;69172;52.352;5.006;2023-05-14T02:53:41;28.35;;;15.48;;
79702;SDS011;69172;52.352;5.006;2023-05-14T02:56:06;27.38;;;14.10;;
79702;SDS011;69172;52.352;5.006;2023-05-14T02:58:32;29.45;;;14.32;;
79702;SDS011;69172;52.352;5.006;2023-05-14T03:00:58;27.25;;;15.45;;
79702;SDS011;69172;52.352;5.006;2023-05-14T03:03:23;28.25;;;14.05;;
79702;SDS011;69172;52.352;5.006;2023-05-14T03:05:48;24.25;;;14.02;;
79702;SDS011;69172;52.352;5.006;2023-05-14T03:08:14;26.77;;;15.13;;
79702;SDS011;69172;52.352;5.006;2023-05-14T03:10:40;29.05;;;15.45;;
79702;SDS011;69172;52.352;5.006;2023-05-14T03:13:05;26.15;;;13.52;;
79702;SDS011;69172;52.352;5.006;2023-05-14T03:15:30;27.42;;;14.75;;
79702;SDS011;69172;52.352;5.006;2023-05-14T03:17:56;28.52;;;14.55;;
79702;SDS011;69172;52.352;5.006;2023-05-14T03:20:23;31.67;;;16.33;;
79702;SDS011;69172;52.352;5.006;2023-05-14T03:22:49;28.58;;;15.63;;
79702;SDS011;69172;52.352;5.006;2023-05-14T03:25:15;30.25;;;16.63;;
79702;SDS011;69172;52.352;5.006;2023-05-14T03:27:42;29.35;;;15.45;;
79702;SDS011;69172;52.352;5.006;2023-05-14T03:30:07;33.20;;;16.02;;
79702;SDS011;69172;52.352;5.006;2023-05-14T03:32:33;28.08;;;15.70;;
79702;SDS011;69172;52.352;5.006;2023-05-14T03:34:58;33.15;;;17.23;;
79702;SDS011;69172;52.352;5.006;2023-05-14T03:37:23;27.52;;;15.07;;
79702;SDS011;69172;52.352;5.006;2023-05-14T03:39:49;28.50;;;16.08;;
79702;SDS011;69172;52.352;5.006;2023-05-14T03:42:14;30.10;;;15.18;;
79702;SDS011;69172;52.352;5.006;2023-05-14T03:44:39;31.95;;;16.88;;
79702;SDS011;69172;52.352;5.006;2023-05-14T03:47:05;29.00;;;15.30;;
79702;SDS011;69172;52.352;5.006;2023-05-14T03:49:30;28.42;;;15.73;;
79702;SDS011;69172;52.352;5.006;2023-05-14T03:51:56;30.23;;;16.73;;
79702;SDS011;69172;52.352;5.006;2023-05-14T03:54:23;30.25;;;17.35;;
79702;SDS011;69172;52.352;5.006;2023-05-14T03:56:49;30.90;;;17.23;;
79702;SDS011;69172;52.352;5.006;2023-05-14T03:59:14;33.33;;;17.83;;
79702;SDS011;69172;52.352;5.006;2023-05-14T04:01:39;28.85;;;16.92;;
79702;SDS011;69172;52.352;5.006;2023-05-14T04:04:05;30.03;;;18.67;;
79702;SDS011;69172;52.352;5.006;2023-05-14T04:06:30;30.48;;;16.98;;
79702;SDS011;69172;52.352;5.006;2023-05-14T04:08:56;31.52;;;16.40;;
79702;SDS011;69172;52.352;5.006;2023-05-14T04:11:22;34.50;;;17.20;;
79702;SDS011;69172;52.352;5.006;2023-05-14T04:13:47;33.97;;;17.33;;
79702;SDS011;69172;52.352;5.006;2023-05-14T04:16:12;30.77;;;17.20;;
79702;SDS011;69172;52.352;5.006;2023-05-14T04:18:38;34.45;;;18.13;;
79702;SDS011;69172;52.352;5.006;2023-05-14T04:21:05;36.80;;;17.80;;
79702;SDS011;69172;52.352;5.006;2023-05-14T04:23:30;38.42;;;19.85;;
79702;SDS011;69172;52.352;5.006;2023-05-14T04:25:56;34.90;;;19.20;;
79702;SDS011;69172;52.352;5.006;2023-05-14T04:28:22;34.90;;;18.40;;
79702;SDS011;69172;52.352;5.006;2023-05-14T04:30:47;34.20;;;18.23;;
79702;SDS011;69172;52.352;5.006;2023-05-14T04:33:13;33.10;;;17.85;;
79702;SDS011;69172;52.352;5.006;2023-05-14T04:35:39;32.38;;;17.05;;
79702;SDS011;69172;52.352;5.006;2023-05-14T04:38:05;38.65;;;20.58;;
79702;SDS011;69172;52.352;5.006;2023-05-14T04:40:30;37.47;;;18.40;;
79702;SDS011;69172;52.352;5.006;2023-05-14T04:42:56;30.08;;;16.70;;
79702;SDS011;69172;52.352;5.006;2023-05-14T04:45:21;33.42;;;17.17;;
79702;SDS011;69172;52.352;5.006;2023-05-14T04:47:47;28.65;;;15.02;;
79702;SDS011;69172;52.352;5.006;2023-05-14T04:50:12;26.80;;;14.95;;
79702;SDS011;69172;52.352;5.006;2023-05-14T04:52:38;26.38;;;14.55;;
79702;SDS011;69172;52.352;5.006;2023-05-14T04:55:04;30.33;;;15.93;;
79702;SDS011;69172;52.352;5.006;2023-05-14T04:57:30;30.15;;;15.75;;
79702;SDS011;69172;52.352;5.006;2023-05-14T04:59:56;28.55;;;15.70;;
79702;SDS011;69172;52.352;5.006;2023-05-14T05:02:21;33.20;;;16.00;;
79702;SDS011;69172;52.352;5.006;2023-05-14T05:04:46;31.95;;;17.13;;
79702;SDS011;69172;52.352;5.006;2023-05-14T05:07:12;30.55;;;16.20;;
79702;SDS011;69172;52.352;5.006;2023-05-14T05:09:38;30.05;;;16.13;;
79702;SDS011;69172;52.352;5.006;2023-05-14T05:12:04;31.70;;;17.67;;
79702;SDS011;69172;52.352;5.006;2023-05-14T05:14:30;32.10;;;17.20;;
79702;SDS011;69172;52.352;5.006;2023-05-14T05:16:55;30.45;;;16.33;;
79702;SDS011;69172;52.352;5.006;2023-05-14T05:19:20;30.23;;;16.70;;
79702;SDS011;69172;52.352;5.006;2023-05-14T05:21:46;32.33;;;16.23;;
79702;SDS011;69172;52.352;5.006;2023-05-14T05:24:11;31.83;;;16.33;;
79702;SDS011;69172;52.352;5.006;2023-05-14T05:26:37;32.45;;;16.58;;
79702;SDS011;69172;52.352;5.006;2023-05-14T05:29:02;33.28;;;16.35;;
79702;SDS011;69172;52.352;5.006;2023-05-14T05:31:28;30.42;;;16.88;;
79702;SDS011;69172;52.352;5.006;2023-05-14T05:33:54;29.33;;;17.33;;
79702;SDS011;69172;52.352;5.006;2023-05-14T05:36:19;28.92;;;16.85;;
79702;SDS011;69172;52.352;5.006;2023-05-14T05:38:45;31.13;;;15.65;;
79702;SDS011;69172;52.352;5.006;2023-05-14T05:41:10;27.58;;;16.70;;
79702;SDS011;69172;52.352;5.006;2023-05-14T05:43:36;26.48;;;14.90;;
79702;SDS011;69172;52.352;5.006;2023-05-14T05:46:01;31.80;;;17.45;;
79702;SDS011;69172;52.352;5.006;2023-05-14T05:48:26;31.50;;;14.82;;
79702;SDS011;69172;52.352;5.006;2023-05-14T05:50:52;34.85;;;15.55;;
79702;SDS011;69172;52.352;5.006;2023-05-14T05:53:17;27.70;;;13.80;;
79702;SDS011;69172;52.352;5.006;2023-05-14T05:55:43;28.38;;;14.35;;
79702;SDS011;69172;52.352;5.006;2023-05-14T05:58:18;25.08;;;13.73;;
79702;SDS011;69172;52.352;5.006;2023-05-14T06:00:44;28.35;;;14.60;;
79702;SDS011;69172;52.352;5.006;2023-05-14T06:03:11;22.60;;;14.00;;
79702;SDS011;69172;52.352;5.006;2023-05-14T06:05:37;23.80;;;13.25;;
79702;SDS011;69172;52.352;5.006;2023-05-14T06:08:03;23.85;;;13.73;;
79702;SDS011;69172;52.352;5.006;2023-05-14T06:10:29;24.15;;;13.85;;
79702;SDS011;69172;52.352;5.006;2023-05-14T06:12:54;26.27;;;14.18;;
79702;SDS011;69172;52.352;5.006;2023-05-14T06:15:21;26.70;;;13.98;;
79702;SDS011;69172;52.352;5.006;2023-05-14T06:17:47;19.48;;;12.27;;
79702;SDS011;69172;52.352;5.006;2023-05-14T06:20:19;25.08;;;13.02;;
79702;SDS011;69172;52.352;5.006;2023-05-14T06:22:45;22.48;;;12.48;;
79702;SDS011;69172;52.352;5.006;2023-05-14T06:25:11;24.73;;;11.57;;
79702;SDS011;69172;52.352;5.006;2023-05-14T06:27:36;21.65;;;13.45;;
79702;SDS011;69172;52.352;5.006;2023-05-14T06:30:02;23.27;;;12.18;;
79702;SDS011;69172;52.352;5.006;2023-05-14T06:32:27;24.10;;;12.65;;
79702;SDS011;69172;52.352;5.006;2023-05-14T06:34:53;23.45;;;12.32;;
79702;SDS011;69172;52.352;5.006;2023-05-14T06:37:18;24.17;;;12.57;;
79702;SDS011;69172;52.352;5.006;2023-05-14T06:39:43;18.15;;;11.02;;
79702;SDS011;69172;52.352;5.006;2023-05-14T06:42:14;19.92;;;11.00;;
79702;SDS011;69172;52.352;5.006;2023-05-14T06:44:43;20.73;;;11.45;;
79702;SDS011;69172;52.352;5.006;2023-05-14T06:47:09;23.15;;;11.70;;
79702;SDS011;69172;52.352;5.006;2023-05-14T06:49:34;22.55;;;11.57;;
79702;SDS011;69172;52.352;5.006;2023-05-14T06:52:01;23.00;;;11.93;;
79702;SDS011;69172;52.352;5.006;2023-05-14T06:54:27;23.75;;;12.20;;
79702;SDS011;69172;52.352;5.006;2023-05-14T06:56:53;19.73;;;11.27;;
79702;SDS011;69172;52.352;5.006;2023-05-14T06:59:18;24.05;;;11.95;;
79702;SDS011;69172;52.352;5.006;2023-05-14T07:01:44;17.42;;;11.23;;
79702;SDS011;69172;52.352;5.006;2023-05-14T07:04:09;26.38;;;12.25;;
79702;SDS011;69172;52.352;5.006;2023-05-14T07:06:36;21.38;;;11.35;;
79702;SDS011;69172;52.352;5.006;2023-05-14T07:09:02;24.52;;;11.95;;
79702;SDS011;69172;52.352;5.006;2023-05-14T07:11:27;20.52;;;11.85;;
79702;SDS011;69172;52.352;5.006;2023-05-14T07:13:53;20.38;;;11.40;;
79702;SDS011;69172;52.352;5.006;2023-05-14T07:16:18;25.55;;;12.63;;
79702;SDS011;69172;52.352;5.006;2023-05-14T07:18:44;19.88;;;11.00;;
79702;SDS011;69172;52.352;5.006;2023-05-14T07:21:10;18.40;;;10.82;;
79702;SDS011;69172;52.352;5.006;2023-05-14T07:23:36;23.02;;;11.38;;
79702;SDS011;69172;52.352;5.006;2023-05-14T07:26:03;17.60;;;9.95;;
79702;SDS011;69172;52.352;5.006;2023-05-14T07:28:29;17.80;;;10.00;;
79702;SDS011;69172;52.352;5.006;2023-05-14T07:30:55;19.23;;;9.82;;
79702;SDS011;69172;52.352;5.006;2023-05-14T07:33:20;22.45;;;11.20;;
79702;SDS011;69172;52.352;5.006;2023-05-14T07:35:46;21.05;;;11.55;;
79702;SDS011;69172;52.352;5.006;2023-05-14T07:38:11;15.15;;;10.40;;
79702;SDS011;69172;52.352;5.006;2023-05-14T07:40:38;17.88;;;10.38;;
79702;SDS011;69172;52.352;5.006;2023-05-14T07:43:03;22.35;;;11.20;;
79702;SDS011;69172;52.352;5.006;2023-05-14T07:45:29;18.90;;;10.88;;
79702;SDS011;69172;52.352;5.006;2023-05-14T07:47:55;18.33;;;10.70;;
79702;SDS011;69172;52.352;5.006;2023-05-14T07:50:27;23.70;;;11.18;;
79702;SDS011;69172;52.352;5.006;2023-05-14T07:52:54;19.33;;;10.88;;
79702;SDS011;69172;52.352;5.006;2023-05-14T07:55:19;19.38;;;10.82;;
79702;SDS011;69172;52.352;5.006;2023-05-14T07:57:45;24.65;;;11.07;;
79702;SDS011;69172;52.352;5.006;2023-05-14T08:00:11;20.85;;;11.55;;
79702;SDS011;69172;52.352;5.006;2023-05-14T08:02:36;20.27;;;10.82;;
79702;SDS011;69172;52.352;5.006;2023-05-14T08:05:02;26.85;;;11.27;;
79702;SDS011;69172;52.352;5.006;2023-05-14T08:07:28;17.98;;;10.15;;
79702;SDS011;69172;52.352;5.006;2023-05-14T08:09:54;15.68;;;9.93;;
79702;SDS011;69172;52.352;5.006;2023-05-14T08:12:20;19.48;;;10.73;;
79702;SDS011;69172;52.352;5.006;2023-05-14T08:14:45;17.10;;;10.10;;
79702;SDS011;69172;52.352;5.006;2023-05-14T08:17:12;17.98;;;9.90;;
79702;SDS011;69172;52.352;5.006;2023-05-14T08:19:37;17.75;;;10.32;;
79702;SDS011;69172;52.352;5.006;2023-05-14T08:22:03;20.75;;;10.68;;
79702;SDS011;69172;52.352;5.006;2023-05-14T08:24:29;19.23;;;9.93;;
79702;SDS011;69172;52.352;5.006;2023-05-14T08:26:54;24.95;;;10.73;;
79702;SDS011;69172;52.352;5.006;2023-05-14T08:29:20;17.55;;;11.20;;
79702;SDS011;69172;52.352;5.006;2023-05-14T08:31:45;25.05;;;12.07;;
79702;SDS011;69172;52.352;5.006;2023-05-14T08:34:12;15.63;;;10.88;;
79702;SDS011;69172;52.352;5.006;2023-05-14T08:36:37;21.50;;;11.52;;
79702;SDS011;69172;52.352;5.006;2023-05-14T08:39:03;17.38;;;10.43;;
79702;SDS011;69172;52.352;5.006;2023-05-14T08:41:29;19.50;;;9.90;;
79702;SDS011;69172;52.352;5.006;2023-05-14T08:44:14;18.25;;;11.55;;
79702;SDS011;69172;52.352;5.006;2023-05-14T08:46:45;17.13;;;10.75;;
79702;SDS011;69172;52.352;5.006;2023-05-14T08:51:44;17.17;;;9.50;;
79702;SDS011;69172;52.352;5.006;2023-05-14T08:54:12;18.05;;;10.52;;
79702;SDS011;69172;52.352;5.006;2023-05-14T08:56:41;15.57;;;8.30;;
79702;SDS011;69172;52.352;5.006;2023-05-14T08:59:08;18.08;;;10.43;;
79702;SDS011;69172;52.352;5.006;2023-05-14T09:01:35;17.42;;;10.20;;
79702;SDS011;69172;52.352;5.006;2023-05-14T09:04:02;19.25;;;8.55;;
79702;SDS011;69172;52.352;5.006;2023-05-14T09:06:35;18.75;;;9.38;;
79702;SDS011;69172;52.352;5.006;2023-05-14T09:09:02;16.70;;;9.05;;
79702;SDS011;69172;52.352;5.006;2023-05-14T09:11:28;15.18;;;9.73;;
79702;SDS011;69172;52.352;5.006;2023-05-14T09:13:53;16.25;;;9.38;;
79702;SDS011;69172;52.352;5.006;2023-05-14T09:16:18;19.73;;;10.95;;
79702;SDS011;69172;52.352;5.006;2023-05-14T09:18:46;16.98;;;9.52;;
79702;SDS011;69172;52.352;5.006;2023-05-14T09:21:14;18.60;;;9.30;;
79702;SDS011;69172;52.352;5.006;2023-05-14T09:23:40;20.08;;;8.52;;
79702;SDS011;69172;52.352;5.006;2023-05-14T09:26:10;16.92;;;9.90;;
79702;SDS011;69172;52.352;5.006;2023-05-14T09:28:39;21.45;;;10.15;;
79702;SDS011;69172;52.352;5.006;2023-05-14T09:31:05;17.60;;;9.25;;
79702;SDS011;69172;52.352;5.006;2023-05-14T09:33:31;20.20;;;10.00;;
79702;SDS011;69172;52.352;5.006;2023-05-14T09:36:00;14.82;;;8.45;;
79702;SDS011;69172;52.352;5.006;2023-05-14T09:38:29;18.35;;;9.13;;
79702;SDS011;69172;52.352;5.006;2023-05-14T09:40:55;21.52;;;8.13;;
79702;SDS011;69172;52.352;5.006;2023-05-14T09:43:21;17.67;;;8.18;;
79702;SDS011;69172;52.352;5.006;2023-05-14T09:45:47;16.08;;;8.13;;
79702;SDS011;69172;52.352;5.006;2023-05-14T09:48:14;14.68;;;7.72;;
79702;SDS011;69172;52.352;5.006;2023-05-14T09:50:43;15.23;;;7.93;;
79702;SDS011;69172;52.352;5.006;2023-05-14T09:53:09;18.95;;;8.00;;
79702;SDS011;69172;52.352;5.006;2023-05-14T09:55:36;14.55;;;7.75;;
79702;SDS011;69172;52.352;5.006;2023-05-14T09:58:01;14.73;;;7.00;;
79702;SDS011;69172;52.352;5.006;2023-05-14T10:00:28;20.00;;;7.88;;
79702;SDS011;69172;52.352;5.006;2023-05-14T10:02:55;14.23;;;7.55;;
79702;SDS011;69172;52.352;5.006;2023-05-14T10:05:22;18.20;;;7.38;;
79702;SDS011;69172;52.352;5.006;2023-05-14T10:07:49;15.80;;;6.82;;
79702;SDS011;69172;52.352;5.006;2023-05-14T10:10:17;15.32;;;7.25;;
79702;SDS011;69172;52.352;5.006;2023-05-14T10:13:06;14.70;;;7.13;;
79702;SDS011;69172;52.352;5.006;2023-05-14T10:18:38;15.45;;;6.45;;
79702;SDS011;69172;52.352;5.006;2023-05-14T10:21:07;17.15;;;7.10;;
79702;SDS011;69172;52.352;5.006;2023-05-14T10:23:35;14.93;;;6.50;;
79702;SDS011;69172;52.352;5.006;2023-05-14T10:26:02;14.82;;;7.07;;
79702;SDS011;69172;52.352;5.006;2023-05-14T10:28:28;14.77;;;6.65;;
79702;SDS011;69172;52.352;5.006;2023-05-14T10:30:54;17.77;;;7.93;;
79702;SDS011;69172;52.352;5.006;2023-05-14T10:33:20;18.33;;;7.45;;
79702;SDS011;69172;52.352;5.006;2023-05-14T10:35:56;15.27;;;6.18;;
79702;SDS011;69172;52.352;5.006;2023-05-14T10:38:25;14.82;;;6.25;;
79702;SDS011;69172;52.352;5.006;2023-05-14T10:40:55;12.93;;;6.25;;
79702;SDS011;69172;52.352;5.006;2023-05-14T10:43:23;22.90;;;6.45;;
79702;SDS011;69172;52.352;5.006;2023-05-14T10:45:50;13.38;;;6.40;;
79702;SDS011;69172;52.352;5.006;2023-05-14T10:48:17;14.50;;;5.25;;
79702;SDS011;69172;52.352;5.006;2023-05-14T10:50:43;16.58;;;6.25;;
79702;SDS011;69172;52.352;5.006;2023-05-14T10:53:13;13.38;;;6.55;;
79702;SDS011;69172;52.352;5.006;2023-05-14T10:58:11;13.95;;;5.57;;
79702;SDS011;69172;52.352;5.006;2023-05-14T11:00:37;16.65;;;6.53;;
79702;SDS011;69172;52.352;5.006;2023-05-14T11:03:04;14.90;;;5.95;;
79702;SDS011;69172;52.352;5.006;2023-05-14T11:05:31;17.30;;;6.35;;
79702;SDS011;69172;52.352;5.006;2023-05-14T11:07:59;17.55;;;7.10;;
79702;SDS011;69172;52.352;5.006;2023-05-14T11:10:28;12.32;;;5.93;;
79702;SDS011;69172;52.352;5.006;2023-05-14T11:12:54;18.73;;;6.63;;
79702;SDS011;69172;52.352;5.006;2023-05-14T11:15:22;17.33;;;5.85;;
79702;SDS011;69172;52.352;5.006;2023-05-14T11:17:49;15.50;;;6.65;;
79702;SDS011;69172;52.352;5.006;2023-05-14T11:20:15;15.77;;;5.93;;
79702;SDS011;69172;52.352;5.006;2023-05-14T11:22:42;14.13;;;6.68;;
79702;SDS011;69172;52.352;5.006;2023-05-14T11:25:09;19.35;;;7.30;;
79702;SDS011;69172;52.352;5.006;2023-05-14T11:27:38;13.15;;;6.38;;
79702;SDS011;69172;52.352;5.006;2023-05-14T11:30:18;16.42;;;5.97;;
79702;SDS011;69172;52.352;5.006;2023-05-14T11:32:45;12.25;;;6.78;;
79702;SDS011;69172;52.352;5.006;2023-05-14T11:35:12;16.05;;;6.63;;
79702;SDS011;69172;52.352;5.006;2023-05-14T11:37:38;11.40;;;6.68;;
79702;SDS011;69172;52.352;5.006;2023-05-14T11:40:06;12.52;;;6.10;;
79702;SDS011;69172;52.352;5.006;2023-05-14T11:42:34;13.50;;;6.25;;
79702;SDS011;69172;52.352;5.006;2023-05-14T11:45:01;14.25;;;6.00;;
79702;SDS011;69172;52.352;5.006;2023-05-14T11:47:28;12.52;;;6.00;;
79702;SDS011;69172;52.352;5.006;2023-05-14T11:49:53;12.30;;;6.05;;
79702;SDS011;69172;52.352;5.006;2023-05-14T11:52:19;14.55;;;5.93;;
79702;SDS011;69172;52.352;5.006;2023-05-14T11:54:47;17.02;;;6.78;;
79702;SDS011;69172;52.352;5.006;2023-05-14T11:57:17;14.63;;;6.40;;
79702;SDS011;69172;52.352;5.006;2023-05-14T11:59:43;15.25;;;5.82;;
79702;SDS011;69172;52.352;5.006;2023-05-14T12:02:10;10.50;;;5.35;;
79702;SDS011;69172;52.352;5.006;2023-05-14T12:04:39;15.15;;;5.45;;
79702;SDS011;69172;52.352;5.006;2023-05-14T12:07:07;14.18;;;5.75;;
79702;SDS011;69172;52.352;5.006;2023-05-14T12:12:08;17.75;;;7.15;;
79702;SDS011;69172;52.352;5.006;2023-05-14T12:14:39;15.57;;;6.43;;
79702;SDS011;69172;52.352;5.006;2023-05-14T12:17:39;14.30;;;6.20;;
79702;SDS011;69172;52.352;5.006;2023-05-14T12:19:57;9.77;;;4.90;;
79702;SDS011;69172;52.352;5.006;2023-05-14T12:22:23;12.55;;;5.03;;
79702;SDS011;69172;52.352;5.006;2023-05-14T12:24:52;12.32;;;5.07;;
79702;SDS011;69172;52.352;5.006;2023-05-14T12:27:20;11.75;;;4.97;;
79702;SDS011;69172;52.352;5.006;2023-05-14T12:29:48;12.20;;;4.45;;
79702;SDS011;69172;52.352;5.006;2023-05-14T12:32:13;11.10;;;4.70;;
79702;SDS011;69172;52.352;5.006;2023-05-14T12:34:38;15.00;;;5.30;;
79702;SDS011;69172;52.352;5.006;2023-05-14T12:37:04;13.60;;;5.70;;
79702;SDS011;69172;52.352;5.006;2023-05-14T12:39:31;12.80;;;5.03;;
79702;SDS011;69172;52.352;5.006;2023-05-14T12:41:57;12.73;;;5.35;;
79702;SDS011;69172;52.352;5.006;2023-05-14T12:44:23;11.40;;;5.38;;
79702;SDS011;69172;52.352;5.006;2023-05-14T12:46:48;11.10;;;4.72;;
79702;SDS011;69172;52.352;5.006;2023-05-14T12:49:14;12.20;;;5.78;;
79702;SDS011;69172;52.352;5.006;2023-05-14T12:51:39;13.98;;;5.47;;
79702;SDS011;69172;52.352;5.006;2023-05-14T12:54:05;13.65;;;4.95;;
79702;SDS011;69172;52.352;5.006;2023-05-14T12:56:30;9.45;;;4.63;;
79702;SDS011;69172;52.352;5.006;2023-05-14T12:58:56;11.93;;;4.63;;
79702;SDS011;69172;52.352;5.006;2023-05-14T13:01:22;13.55;;;5.00;;
79702;SDS011;69172;52.352;5.006;2023-05-14T13:03:48;13.13;;;5.82;;
79702;SDS011;69172;52.352;5.006;2023-05-14T13:06:13;11.38;;;5.30;;
79702;SDS011;69172;52.352;5.006;2023-05-14T13:08:39;11.75;;;5.88;;
79702;SDS011;69172;52.352;5.006;2023-05-14T13:11:06;12.38;;;5.30;;
79702;SDS011;69172;52.352;5.006;2023-05-14T13:13:32;10.90;;;4.85;;
79702;SDS011;69172;52.352;5.006;2023-05-14T13:15:57;11.45;;;5.25;;
79702;SDS011;69172;52.352;5.006;2023-05-14T13:18:23;12.50;;;5.50;;
79702;SDS011;69172;52.352;5.006;2023-05-14T13:20:50;11.40;;;5.43;;
79702;SDS011;69172;52.352;5.006;2023-05-14T13:23:16;13.43;;;6.05;;
79702;SDS011;69172;52.352;5.006;2023-05-14T13:25:41;13.43;;;5.07;;
79702;SDS011;69172;52.352;5.006;2023-05-14T13:28:07;18.23;;;6.65;;
79702;SDS011;69172;52.352;5.006;2023-05-14T13:30:33;12.65;;;5.38;;
79702;SDS011;69172;52.352;5.006;2023-05-14T13:32:58;12.38;;;5.55;;
79702;SDS011;69172;52.352;5.006;2023-05-14T13:35:24;12.45;;;5.47;;
79702;SDS011;69172;52.352;5.006;2023-05-14T13:37:49;11.18;;;5.78;;
79702;SDS011;69172;52.352;5.006;2023-05-14T13:40:15;11.07;;;5.10;;
79702;SDS011;69172;52.352;5.006;2023-05-14T13:42:40;13.15;;;5.85;;
79702;SDS011;69172;52.352;5.006;2023-05-14T13:45:06;18.10;;;6.80;;
79702;SDS011;69172;52.352;5.006;2023-05-14T13:47:32;15.98;;;8.45;;
79702;SDS011;69172;52.352;5.006;2023-05-14T13:49:58;13.70;;;5.85;;
79702;SDS011;69172;52.352;5.006;2023-05-14T13:52:23;13.05;;;5.60;;
79702;SDS011;69172;52.352;5.006;2023-05-14T13:54:49;14.65;;;5.15;;
79702;SDS011;69172;52.352;5.006;2023-05-14T13:57:14;14.68;;;5.78;;
79702;SDS011;69172;52.352;5.006;2023-05-14T13:59:40;13.50;;;6.35;;
79702;SDS011;69172;52.352;5.006;2023-05-14T14:02:06;12.02;;;5.60;;
79702;SDS011;69172;52.352;5.006;2023-05-14T14:04:32;9.55;;;4.90;;
79702;SDS011;69172;52.352;5.006;2023-05-14T14:06:57;15.00;;;5.93;;
79702;SDS011;69172;52.352;5.006;2023-05-14T14:09:23;12.15;;;6.38;;
79702;SDS011;69172;52.352;5.006;2023-05-14T14:11:48;11.23;;;5.00;;
79702;SDS011;69172;52.352;5.006;2023-05-14T14:14:15;11.50;;;4.45;;
79702;SDS011;69172;52.352;5.006;2023-05-14T14:16:40;13.10;;;5.70;;
79702;SDS011;69172;52.352;5.006;2023-05-14T14:19:05;12.25;;;4.80;;
79702;SDS011;69172;52.352;5.006;2023-05-14T14:21:31;13.90;;;5.50;;
79702;SDS011;69172;52.352;5.006;2023-05-14T14:23:57;11.02;;;5.35;;
79702;SDS011;69172;52.352;5.006;2023-05-14T14:26:22;10.75;;;5.00;;
79702;SDS011;69172;52.352;5.006;2023-05-14T14:28:48;15.25;;;6.55;;
79702;SDS011;69172;52.352;5.006;2023-05-14T14:31:15;12.55;;;6.03;;
79702;SDS011;69172;52.352;5.006;2023-05-14T14:33:41;14.70;;;7.63;;
79702;SDS011;69172;52.352;5.006;2023-05-14T14:36:07;14.63;;;6.05;;